Startpagina
METAR-TAF:

METAR-TAF

Vliegvelden :

Bella Coola, Brits Columbia, Canada

breedte: 52-23N, lengte: 126-35W, hoogte: 35 m

Actueel weer

Dit bericht is 1 uur en het 14 minuten geleden gemaakt, om 19:00 UTC
Wind 2 kt uit variabele richting
Temperatuur 11°C
Vochtigheid 71%
Druk 1021 hPa
Zicht: 24.1 km
Weinig wolken op 2300 ft
Verspreide wolken op 5700 ft
Verspreide wolken op 9000 ft
Gebroken wolken op 21000 ft

METAR: CYBD 101900Z VRB02KT 15SM FEW023 SCT057 SCT090 BKN210 11/06 A3015 RMK SC1SC2AC1CI1 SLP212

Tijdstip: 13:14 (20:14 UTC)


TAF: ontbreekt

Waarnemingen en weersverwachtingen van meer dan 4000 vliegvelden (METAR en TAF).

De beschikbare stations zijn de gele en rode punten op de kaart.

Ga met uw muis naar het station om de naam te zien.

Klik dan om waarnemingen en weersverwachtingen te zien.

kaart wijzigen: klik op de groene knoppen met een zwart kruis om in te zoomen, op de groene knop met een streepje om uit te zoomen of op de groene pijlen voor aangrenzende kaarten.


METAR-TAF: